Latest Coastal Weather Observations for Bairnsdale

IDV60701

Issued at 7:11 pm EST Friday 6 May 2016 (issued every 10 minutes, with the page automatically refreshed every 10 minutes)

About coastal observations | Map of coastal stations | Coastal observations for VIC | Marine services | Other Formats
Station Details ID: 085279 Name: BAIRNSDALE AIRPORT Lat: -37.88 Lon: 147.57 Height: 49.4 m
Data from the previous 72 hours. | See also: Recent months at Bairnsdale
Date/Time
EST
Temp

°C
Wind Pressure Rain
since 9am
mm
Weather Cloud Vis
km
Sea
Height
m
Swell
Dir
 
Speed
knots
Gust
knots
hPa Trend Height
m
Period
s
Dir
06/07:00pm 15.0 SW 10 11 1016.2 - 0.0 - - 10 - - - -
06/06:30pm 15.9 SW 9 11 1015.8 - 0.0 - - 10 - - - -
06/06:00pm 15.1 NW 1 5 1015.3 - 0.0 - - 10 - - - -
06/05:30pm 20.2 NNE 3 3 1014.8 - 0.0 - - 10 - - - -
06/05:00pm 21.6 N 6 8 1014.3 - 0.0 - - 10 - - - -
06/04:30pm 23.1 NNW 8 11 1014.2 - 0.0 - - 10 - - - -
06/04:00pm 24.7 N 7 9 1014.1 - 0.0 - - 10 - - - -
06/03:30pm 25.2 N 11 15 1013.9 - 0.0 - - 10 - - - -
06/03:00pm 25.5 N 11 17 1013.7 - 0.0 - - 10 - - - -
06/02:30pm 25.6 NNW 12 15 1013.6 - 0.0 - - 10 - - - -
06/02:00pm 26.0 NNW 10 16 1013.7 - 0.0 - - 10 - - - -
06/01:30pm 25.9 NNW 12 16 1013.8 - 0.0 - - 10 - - - -
06/01:00pm 25.5 NNW 13 18 1014.1 - 0.0 - - 10 - - - -
06/12:30pm 25.6 NNW 13 18 1014.3 - 0.0 - - 10 - - - -
06/12:00pm 24.8 NNW 13 19 1014.8 - 0.0 - - 10 - - - -
06/11:30am 24.8 NNW 11 15 1015.3 - 0.0 - - 10 - - - -
06/11:00am 24.1 NNW 10 15 1015.7 - 0.0 - - 10 - - - -
06/10:30am 23.4 NNW 9 17 1015.9 - 0.0 - - 10 - - - -
06/10:00am 22.5 N 9 14 1015.9 - 0.0 - - 10 - - - -
06/09:30am 19.1 NE 6 7 1016.2 - 0.0 - - 10 - - - -
06/09:00am 17.4 NNE 6 8 1016.3 - 0.0 - - 10 - - - -
06/08:30am 15.9 ENE 8 10 1016.2 - 0.0 - - 10 - - - -
06/08:00am 14.1 ENE 6 8 1015.8 - 0.0 - - 10 - - - -
06/07:30am 13.6 NNE 7 11 1015.4 - 0.0 - - 10 - - - -
06/07:00am 13.4 NNE 9 13 1015.4 - 0.0 - - 10 - - - -
06/06:30am 12.2 NE 7 9 1015.4 - 0.0 - - 10 - - - -
06/06:00am 11.3 NE 6 7 1015.0 - 0.0 - - 10 - - - -
06/05:30am 13.0 NNE 7 10 1014.8 - 0.0 - - 10 - - - -
06/05:00am 12.7 NNE 6 8 1014.9 - 0.0 - - 10 - - - -
06/04:30am 12.7 NNE 6 8 1014.7 - 0.0 - - 10 - - - -
06/04:00am 12.0 NNE 6 9 1014.4 - 0.0 - - 10 - - - -
06/03:30am 11.4 N 5 7 1014.4 - 0.0 - - 10 - - - -
06/03:00am 11.9 N 6 7 1014.4 - 0.0 - - 10 - - - -
06/02:30am 10.8 N 5 7 1014.3 - 0.0 - - 10 - - - -
06/02:00am 11.3 NE 6 7 1014.4 - 0.0 - - 10 - - - -
06/01:30am 11.6 NE 6 7 1014.3 - 0.0 - - 10 - - - -
06/01:00am 12.3 NNE 7 9 1014.4 - 0.0 - - 10 - - - -
06/12:30am 11.3 NNE 5 6 1014.4 - 0.0 - - 10 - - - -
06/12:00am 11.6 NNE 6 7 1014.4 - 0.0 - - 10 - - - -
 
Date/Time
EST
Temp

°C
Wind Pressure Rain
since 9am
mm
Weather Cloud Vis
km
Sea
Height
m
Swell
Dir
 
Speed
knots
Gust
knots
hPa Trend Height
m
Period
s
Dir
05/11:30pm 12.5 NNE 7 8 1014.5 - 0.0 - - 10 - - - -
05/11:00pm 12.8 NNE 6 7 1014.6 - 0.0 - - 10 - - - -
05/10:30pm 11.3 NNE 4 6 1014.8 - 0.0 - - 10 - - - -
05/10:00pm 11.5 NNE 4 5 1014.8 - 0.0 - - 10 - - - -
05/09:30pm 12.0 ENE 6 8 1014.8 - 0.0 - - 10 - - - -
05/09:00pm 12.4 N 4 5 1015.0 - 0.0 - - 10 - - - -
05/08:30pm 13.3 NW 6 8 1015.0 - 0.0 - - 10 - - - -
05/08:00pm 13.3 NNW 5 7 1015.0 - 0.0 - - 10 - - - -
05/07:30pm 12.5 NW 5 7 1014.7 - 0.0 - - 10 - - - -
05/07:00pm 14.2 NNW 3 5 1014.6 - 0.0 - - 10 - - - -
05/06:30pm 12.6 NW 6 8 1014.2 - 0.0 - - 10 - - - -
05/06:00pm 14.1 NW 6 7 1014.0 - 0.0 - - 10 - - - -
05/05:30pm 15.5 NW 7 10 1013.9 - 0.0 - - 10 - - - -
05/05:00pm 17.9 NW 7 11 1013.9 - 0.0 - - 10 - - - -
05/04:30pm 19.2 NW 9 12 1013.8 - 0.0 - - 10 - - - -
05/04:00pm 20.3 NW 10 15 1013.8 - 0.0 - - 10 - - - -
05/03:30pm 20.8 NW 12 17 1013.8 - 0.0 - - 10 - - - -
05/03:00pm 21.4 NW 12 17 1013.8 - 0.0 - - 10 - - - -
05/02:30pm 21.8 NW 11 15 1013.8 - 0.0 - - 10 - - - -
05/02:00pm 21.9 NW 10 15 1014.0 - 0.0 - - 10 - - - -
05/01:30pm 21.8 NNW 10 13 1014.2 - 0.0 - - 10 - - - -
05/01:00pm 21.7 NNW 9 13 1014.7 - 0.0 - - 10 - - - -
05/12:30pm 21.3 NNW 11 14 1014.9 - 0.0 - - 10 - - - -
05/12:00pm 20.8 NNW 11 17 1015.4 - 0.0 - - 10 - - - -
05/11:30am 20.4 NNW 7 13 1016.1 - 0.0 - - 10 - - - -
05/11:00am 19.5 NNW 6 9 1016.7 - 0.0 - - 10 - - - -
05/10:30am 18.1 NNE 7 9 1017.1 - 0.0 - - 10 - - - -
05/10:00am 17.2 NNE 7 9 1017.3 - 0.0 - - 10 - - - -
05/09:30am 15.5 NE 6 8 1017.5 - 0.0 - - 10 - - - -
05/09:00am 13.7 NNE 5 8 1017.7 - 0.0 - - 10 - - - -
05/08:30am 11.7 NNE 7 8 1017.9 - 0.0 - - 10 - - - -
05/08:00am 10.1 NNE 4 6 1017.9 - 0.0 - - 10 - - - -
05/07:30am 8.5 NNE 5 7 1017.6 - 0.0 - - 10 - - - -
05/07:00am 7.4 NNE 5 6 1017.6 - 0.0 - - 10 - - - -
05/06:30am 7.7 NE 6 7 1017.4 - 0.0 - - 10 - - - -
05/06:00am 7.4 NNE 5 7 1017.4 - 0.0 - - 10 - - - -
05/05:30am 8.0 NE 6 7 1017.3 - 0.0 - - 10 - - - -
05/05:00am 6.9 NE 6 7 1017.3 - 0.0 - - 10 - - - -
05/04:30am 7.5 NNE 6 8 1017.0 - 0.0 - - 10 - - - -
05/04:00am 7.4 NNE 5 7 1017.0 - 0.0 - - 10 - - - -
05/03:30am 7.1 NNE 6 8 1017.1 - 0.0 - - 10 - - - -
05/03:00am 6.4 N 6 7 1017.2 - 0.0 - - 10 - - - -
05/02:30am 6.1 NNE 4 5 1017.4 - 0.0 - - 10 - - - -
05/02:00am 6.5 NNE 5 6 1017.5 - 0.0 - - 10 - - - -
05/01:30am 6.7 N 5 6 1017.5 - 0.0 - - 10 - - - -
05/01:00am 6.4 N 5 6 1017.7 - 0.0 - - 10 - - - -
05/12:30am 6.2 N 6 7 1017.8 - 0.0 - - 10 - - - -
05/12:00am 6.6 NNW 5 5 1017.9 - 0.0 - - 10 - - - -
 
Date/Time
EST
Temp

°C
Wind Pressure Rain
since 9am
mm
Weather Cloud Vis
km
Sea
Height
m
Swell
Dir
 
Speed
knots
Gust
knots
hPa Trend Height
m
Period
s
Dir
04/11:30pm 6.0 NW 6 7 1017.8 - 0.0 - - 10 - - - -
04/11:00pm 5.5 NW 6 7 1018.1 - 0.0 - - 10 - - - -
04/10:30pm 6.0 NW 5 6 1018.1 - 0.0 - - 10 - - - -
04/10:00pm 6.0 NW 5 7 1018.0 - 0.0 - - 10 - - - -
04/09:30pm 7.3 N 4 5 1018.0 - 0.0 - - 10 - - - -
04/09:00pm 8.5 NE 4 5 1017.7 - 0.0 - - 10 - - - -
04/08:30pm 7.6 NNE 3 5 1017.5 - 0.0 - - 10 - - - -
04/08:00pm 10.7 ENE 5 6 1017.2 - 0.0 - - 10 - - - -
04/07:30pm 11.0 ENE 6 8 1016.9 - 0.0 - - 10 - - - -
04/07:00pm 10.9 NE 5 6 1016.6 - 0.0 - - 10 - - - -
04/06:30pm 10.8 NE 3 4 1016.2 - 0.0 - - 10 - - - -
04/06:00pm 10.9 NE 3 4 1016.1 - 0.0 - - 10 - - - -
04/05:30pm 12.8 NE 5 7 1015.6 - 0.0 - - 10 - - - -
04/05:00pm 14.7 ESE 5 6 1015.1 - 0.0 - - 10 - - - -
04/04:30pm 16.2 ESE 7 9 1014.8 - 0.0 - - 10 - - - -
04/04:00pm 17.8 SW 5 7 1014.4 - 0.0 - - 10 - - - -
04/03:30pm 18.2 W 7 11 1014.2 - 0.0 - - 10 - - - -
04/03:00pm 18.4 W 5 8 1014.0 - 0.0 - - 10 - - - -
04/02:30pm 18.2 SSW 5 11 1013.9 - 0.0 - - 10 - - - -
04/02:00pm 17.9 SW 7 10 1013.8 - 0.0 - - 10 - - - -
04/01:30pm 17.7 W 7 11 1013.8 - 0.0 - - 10 - - - -
04/01:00pm 17.3 WSW 8 13 1013.9 - 0.0 - - 10 - - - -
04/12:30pm 17.0 WSW 11 15 1014.5 - 0.0 - - 10 - - - -
04/12:00pm 16.8 W 11 17 1014.8 - 0.0 - - 10 - - - -
04/11:30am 16.3 W 11 16 1015.0 - 0.0 - - 10 - - - -
04/11:00am 16.1 W 10 15 1015.0 - 0.0 - - 10 - - - -
04/10:30am 15.8 WNW 11 15 1014.9 - 0.0 - - 10 - - - -
04/10:00am 15.4 WNW 9 14 1014.9 - 0.0 - - 10 - - - -
04/09:30am 14.5 W 8 13 1014.9 - 0.0 - - 10 - - - -
04/09:00am 13.2 W 8 11 1014.9 - 0.6 - - 10 - - - -
04/08:30am 11.5 WNW 7 10 1014.6 - 0.6 - - 10 - - - -
04/08:00am 9.6 WNW 6 9 1014.2 - 0.6 - - 10 - - - -
04/07:30am 6.7 SW 7 8 1014.0 - 0.6 - - 10 - - - -
04/07:00am 8.4 WSW 8 11 1013.4 - 0.6 - - 10 - - - -
04/06:30am 8.2 WSW 8 9 1012.6 - 0.6 - - 10 - - - -
04/06:00am 7.8 WSW 6 9 1011.9 - 0.6 - - 10 - - - -
04/05:30am 8.8 SW 9 11 1011.7 - 0.6 - - 10 - - - -
04/05:00am 10.8 SW 13 18 1011.0 - 0.6 - - 10 - - - -
04/04:30am 10.9 WSW 11 17 1010.2 - 0.6 - - 10 - - - -
04/04:00am 10.0 WSW 10 13 1009.5 - 0.6 - - 10 - - - -
04/03:30am 10.5 SW 12 14 1009.2 - 0.6 - - 10 - - - -
04/03:00am 11.1 WSW 7 10 1009.1 - 0.6 - - 10 - - - -
04/02:30am 12.3 WSW 16 21 1008.4 - 0.6 - - 10 - - - -
04/02:00am 12.8 WSW 17 24 1007.7 - 0.6 - Partly cloudy 10 - - - -
04/01:30am 13.2 WSW 14 19 1007.6 - 0.6 - - 10 - - - -
04/01:00am 11.4 WSW 5 11 1007.7 - 0.6 - - 10 - - - -
04/12:30am 11.5 N 3 4 1007.3 - 0.6 - - 10 - - - -
04/12:00am 11.8 WNW 4 6 1007.0 - 0.2 - - 10 - - - -
 
Date/Time
EST
Temp

°C
Wind Pressure Rain
since 9am
mm
Weather Cloud Vis
km
Sea
Height
m
Swell
Dir
 
Speed
knots
Gust
knots
hPa Trend Height
m
Period
s
Dir
03/11:30pm 12.5 W 6 9 1006.7 - 0.2 - - 10 - - - -
03/11:00pm 13.4 W 11 15 1006.8 - 0.2 - Cloudy 10 - - - -
03/10:30pm 13.3 W 12 16 1006.6 - 0.2 - Cloudy 10 - - - -
03/10:00pm 12.6 WSW 10 17 1006.0 - 0.2 - Partly cloudy 10 - - - -
03/09:30pm 13.3 SW 18 25 1005.9 - 0.2 - Partly cloudy 10 - - - -
03/09:00pm 13.8 SW 18 23 1005.0 - 0.2 - Cloudy 10 - - - -
03/08:36pm 14.2 SW 20 31 1004.7 - 0.2 - Cloudy 10 - - - -
03/08:30pm 14.1 SW 18 27 1004.7 - 0.2 - Cloudy 10 - - - -
03/08:01pm 14.6 SW 20 30 1003.9 - 0.2 - - 10 - - - -
03/08:00pm 14.5 WSW 21 30 1003.9 - 0.2 - - 10 - - - -
03/07:30pm 15.3 WSW 22 31 1003.1 - 0.2 - - 10 - - - -
03/07:17pm 15.6 WSW 19 35 1002.8 - 0.2 - - 10 - - - -
03/07:14pm 15.9 WSW 18 26 1002.9 - 0.2 - - 10 - - - -

Other Formats:

Comma delimited format used in spreadsheet applications
http://www.bom.gov.au/fwo/IDV60701/IDV60701.94912.axf

JavaScript Object Notation format (JSON) in row-major order
http://www.bom.gov.au/fwo/IDV60701/IDV60701.94912.json